sensor_id;sensor_type;location;lat;lon;timestamp;P1;durP1;ratioP1;P2;durP2;ratioP2
21140;SDS011;10728;53.284;10.314;2022-11-20T00:00:55;8.37;;;5.57;;
21140;SDS011;10728;53.284;10.314;2022-11-20T00:03:21;8.93;;;5.70;;
21140;SDS011;10728;53.284;10.314;2022-11-20T00:05:46;12.70;;;7.00;;
21140;SDS011;10728;53.284;10.314;2022-11-20T00:08:12;8.83;;;5.77;;
21140;SDS011;10728;53.284;10.314;2022-11-20T00:10:38;7.70;;;5.17;;
21140;SDS011;10728;53.284;10.314;2022-11-20T00:13:04;6.53;;;4.93;;
21140;SDS011;10728;53.284;10.314;2022-11-20T00:15:30;8.70;;;5.70;;
21140;SDS011;10728;53.284;10.314;2022-11-20T00:17:55;8.73;;;5.57;;
21140;SDS011;10728;53.284;10.314;2022-11-20T00:20:21;11.10;;;5.80;;
21140;SDS011;10728;53.284;10.314;2022-11-20T00:22:47;8.70;;;5.87;;
21140;SDS011;10728;53.284;10.314;2022-11-20T00:25:12;22.57;;;7.73;;
21140;SDS011;10728;53.284;10.314;2022-11-20T00:27:38;24.87;;;11.07;;
21140;SDS011;10728;53.284;10.314;2022-11-20T00:30:04;19.80;;;9.90;;
21140;SDS011;10728;53.284;10.314;2022-11-20T00:32:30;11.93;;;6.50;;
21140;SDS011;10728;53.284;10.314;2022-11-20T00:34:55;11.13;;;5.70;;
21140;SDS011;10728;53.284;10.314;2022-11-20T00:37:21;6.40;;;4.57;;
21140;SDS011;10728;53.284;10.314;2022-11-20T00:39:46;12.47;;;5.37;;
21140;SDS011;10728;53.284;10.314;2022-11-20T00:42:11;7.50;;;4.57;;
21140;SDS011;10728;53.284;10.314;2022-11-20T00:44:37;9.73;;;5.17;;
21140;SDS011;10728;53.284;10.314;2022-11-20T00:47:02;8.20;;;5.00;;
21140;SDS011;10728;53.284;10.314;2022-11-20T00:49:28;7.67;;;5.27;;
21140;SDS011;10728;53.284;10.314;2022-11-20T00:51:53;8.73;;;4.87;;
21140;SDS011;10728;53.284;10.314;2022-11-20T00:54:19;7.33;;;5.00;;
21140;SDS011;10728;53.284;10.314;2022-11-20T00:56:44;9.80;;;6.13;;
21140;SDS011;10728;53.284;10.314;2022-11-20T00:59:09;9.10;;;5.63;;
21140;SDS011;10728;53.284;10.314;2022-11-20T01:01:36;8.87;;;5.73;;
21140;SDS011;10728;53.284;10.314;2022-11-20T01:04:02;6.67;;;5.20;;
21140;SDS011;10728;53.284;10.314;2022-11-20T01:06:29;7.13;;;5.33;;
21140;SDS011;10728;53.284;10.314;2022-11-20T01:08:57;7.93;;;5.47;;
21140;SDS011;10728;53.284;10.314;2022-11-20T01:11:27;6.00;;;4.83;;
21140;SDS011;10728;53.284;10.314;2022-11-20T01:13:54;9.00;;;5.60;;
21140;SDS011;10728;53.284;10.314;2022-11-20T01:16:28;10.20;;;5.50;;
21140;SDS011;10728;53.284;10.314;2022-11-20T01:18:56;11.43;;;6.17;;
21140;SDS011;10728;53.284;10.314;2022-11-20T01:21:28;9.83;;;5.60;;
21140;SDS011;10728;53.284;10.314;2022-11-20T01:23:55;9.50;;;5.63;;
21140;SDS011;10728;53.284;10.314;2022-11-20T01:26:22;9.33;;;6.00;;
21140;SDS011;10728;53.284;10.314;2022-11-20T01:28:49;9.33;;;5.37;;
21140;SDS011;10728;53.284;10.314;2022-11-20T01:33:42;10.03;;;5.60;;
21140;SDS011;10728;53.284;10.314;2022-11-20T01:36:08;11.97;;;7.37;;
21140;SDS011;10728;53.284;10.314;2022-11-20T01:38:34;9.47;;;6.50;;
21140;SDS011;10728;53.284;10.314;2022-11-20T01:40:59;12.20;;;6.63;;
21140;SDS011;10728;53.284;10.314;2022-11-20T01:43:26;11.40;;;6.73;;
21140;SDS011;10728;53.284;10.314;2022-11-20T01:48:28;7.33;;;5.17;;
21140;SDS011;10728;53.284;10.314;2022-11-20T01:50:57;6.73;;;4.73;;
21140;SDS011;10728;53.284;10.314;2022-11-20T01:53:24;7.83;;;4.20;;
21140;SDS011;10728;53.284;10.314;2022-11-20T01:55:52;8.90;;;4.80;;
21140;SDS011;10728;53.284;10.314;2022-11-20T01:58:19;7.33;;;4.70;;
21140;SDS011;10728;53.284;10.314;2022-11-20T02:00:47;6.63;;;4.57;;
21140;SDS011;10728;53.284;10.314;2022-11-20T02:03:13;6.23;;;5.17;;
21140;SDS011;10728;53.284;10.314;2022-11-20T02:05:43;8.20;;;5.37;;
21140;SDS011;10728;53.284;10.314;2022-11-20T02:08:12;9.20;;;5.10;;
21140;SDS011;10728;53.284;10.314;2022-11-20T02:10:37;10.60;;;5.10;;
21140;SDS011;10728;53.284;10.314;2022-11-20T02:13:03;9.23;;;5.27;;
21140;SDS011;10728;53.284;10.314;2022-11-20T02:15:47;9.33;;;4.63;;
21140;SDS011;10728;53.284;10.314;2022-11-20T02:18:17;10.80;;;5.43;;
21140;SDS011;10728;53.284;10.314;2022-11-20T02:20:44;7.80;;;5.00;;
21140;SDS011;10728;53.284;10.314;2022-11-20T02:23:12;7.70;;;5.20;;
21140;SDS011;10728;53.284;10.314;2022-11-20T02:25:39;5.33;;;4.20;;
21140;SDS011;10728;53.284;10.314;2022-11-20T02:28:06;8.40;;;4.73;;
21140;SDS011;10728;53.284;10.314;2022-11-20T02:30:31;7.13;;;4.70;;
21140;SDS011;10728;53.284;10.314;2022-11-20T02:32:57;7.87;;;4.73;;
21140;SDS011;10728;53.284;10.314;2022-11-20T02:37:49;9.40;;;5.23;;
21140;SDS011;10728;53.284;10.314;2022-11-20T02:40:16;9.20;;;5.10;;
21140;SDS011;10728;53.284;10.314;2022-11-20T02:42:41;9.13;;;4.93;;
21140;SDS011;10728;53.284;10.314;2022-11-20T02:45:07;8.03;;;4.70;;
21140;SDS011;10728;53.284;10.314;2022-11-20T02:47:33;8.40;;;4.53;;
21140;SDS011;10728;53.284;10.314;2022-11-20T02:49:59;9.60;;;5.23;;
21140;SDS011;10728;53.284;10.314;2022-11-20T02:52:24;8.87;;;5.20;;
21140;SDS011;10728;53.284;10.314;2022-11-20T02:54:50;10.77;;;5.13;;
21140;SDS011;10728;53.284;10.314;2022-11-20T02:57:15;9.53;;;4.77;;
21140;SDS011;10728;53.284;10.314;2022-11-20T02:59:41;7.20;;;4.53;;
21140;SDS011;10728;53.284;10.314;2022-11-20T03:02:06;10.37;;;5.10;;
21140;SDS011;10728;53.284;10.314;2022-11-20T03:04:32;8.60;;;4.57;;
21140;SDS011;10728;53.284;10.314;2022-11-20T03:06:57;8.47;;;4.77;;
21140;SDS011;10728;53.284;10.314;2022-11-20T03:09:22;9.57;;;5.13;;
21140;SDS011;10728;53.284;10.314;2022-11-20T03:11:48;7.23;;;4.83;;
21140;SDS011;10728;53.284;10.314;2022-11-20T03:14:13;8.53;;;5.10;;
21140;SDS011;10728;53.284;10.314;2022-11-20T03:16:39;8.53;;;4.90;;
21140;SDS011;10728;53.284;10.314;2022-11-20T03:19:04;13.13;;;6.00;;
21140;SDS011;10728;53.284;10.314;2022-11-20T03:21:30;9.57;;;4.73;;
21140;SDS011;10728;53.284;10.314;2022-11-20T03:23:55;6.97;;;5.17;;
21140;SDS011;10728;53.284;10.314;2022-11-20T03:26:21;6.93;;;4.87;;
21140;SDS011;10728;53.284;10.314;2022-11-20T03:28:49;6.60;;;4.57;;
21140;SDS011;10728;53.284;10.314;2022-11-20T03:31:19;6.97;;;4.93;;
21140;SDS011;10728;53.284;10.314;2022-11-20T03:33:46;7.47;;;4.90;;
21140;SDS011;10728;53.284;10.314;2022-11-20T03:36:13;8.20;;;4.80;;
21140;SDS011;10728;53.284;10.314;2022-11-20T03:38:39;7.10;;;4.93;;
21140;SDS011;10728;53.284;10.314;2022-11-20T03:41:10;8.60;;;5.00;;
21140;SDS011;10728;53.284;10.314;2022-11-20T03:43:37;7.33;;;5.00;;
21140;SDS011;10728;53.284;10.314;2022-11-20T03:46:02;7.83;;;5.13;;
21140;SDS011;10728;53.284;10.314;2022-11-20T03:48:29;6.27;;;4.60;;
21140;SDS011;10728;53.284;10.314;2022-11-20T03:51:08;6.53;;;4.43;;
21140;SDS011;10728;53.284;10.314;2022-11-20T03:53:37;6.30;;;4.40;;
21140;SDS011;10728;53.284;10.314;2022-11-20T03:56:04;6.70;;;5.07;;
21140;SDS011;10728;53.284;10.314;2022-11-20T03:58:30;7.53;;;4.67;;
21140;SDS011;10728;53.284;10.314;2022-11-20T04:00:55;7.43;;;4.70;;
21140;SDS011;10728;53.284;10.314;2022-11-20T04:03:21;7.93;;;4.57;;
21140;SDS011;10728;53.284;10.314;2022-11-20T04:05:46;6.87;;;4.40;;
21140;SDS011;10728;53.284;10.314;2022-11-20T04:08:11;6.37;;;4.27;;
21140;SDS011;10728;53.284;10.314;2022-11-20T04:10:37;6.53;;;4.07;;
21140;SDS011;10728;53.284;10.314;2022-11-20T04:13:03;6.63;;;4.57;;
21140;SDS011;10728;53.284;10.314;2022-11-20T04:15:28;8.07;;;4.43;;
21140;SDS011;10728;53.284;10.314;2022-11-20T04:17:54;5.80;;;4.30;;
21140;SDS011;10728;53.284;10.314;2022-11-20T04:20:19;6.83;;;4.30;;
21140;SDS011;10728;53.284;10.314;2022-11-20T04:22:44;7.73;;;4.87;;
21140;SDS011;10728;53.284;10.314;2022-11-20T04:25:10;7.40;;;4.33;;
21140;SDS011;10728;53.284;10.314;2022-11-20T04:27:35;5.63;;;4.13;;
21140;SDS011;10728;53.284;10.314;2022-11-20T04:30:01;6.37;;;4.70;;
21140;SDS011;10728;53.284;10.314;2022-11-20T04:32:26;9.13;;;4.70;;
21140;SDS011;10728;53.284;10.314;2022-11-20T04:34:52;8.13;;;4.50;;
21140;SDS011;10728;53.284;10.314;2022-11-20T04:37:17;5.10;;;3.63;;
21140;SDS011;10728;53.284;10.314;2022-11-20T04:39:43;8.17;;;4.73;;
21140;SDS011;10728;53.284;10.314;2022-11-20T04:42:09;7.73;;;4.70;;
21140;SDS011;10728;53.284;10.314;2022-11-20T04:44:53;7.03;;;4.47;;
21140;SDS011;10728;53.284;10.314;2022-11-20T04:47:18;7.50;;;4.77;;
21140;SDS011;10728;53.284;10.314;2022-11-20T04:49:44;10.17;;;5.43;;
21140;SDS011;10728;53.284;10.314;2022-11-20T04:52:09;9.00;;;4.73;;
21140;SDS011;10728;53.284;10.314;2022-11-20T04:54:35;8.63;;;5.20;;
21140;SDS011;10728;53.284;10.314;2022-11-20T04:57:00;6.70;;;4.83;;
21140;SDS011;10728;53.284;10.314;2022-11-20T04:59:26;10.53;;;5.17;;
21140;SDS011;10728;53.284;10.314;2022-11-20T05:01:52;8.10;;;5.17;;
21140;SDS011;10728;53.284;10.314;2022-11-20T05:04:17;7.63;;;4.93;;
21140;SDS011;10728;53.284;10.314;2022-11-20T05:06:42;6.77;;;5.20;;
21140;SDS011;10728;53.284;10.314;2022-11-20T05:09:08;9.47;;;4.83;;
21140;SDS011;10728;53.284;10.314;2022-11-20T05:11:33;7.93;;;5.03;;
21140;SDS011;10728;53.284;10.314;2022-11-20T05:13:59;8.20;;;5.43;;
21140;SDS011;10728;53.284;10.314;2022-11-20T05:16:25;9.63;;;5.47;;
21140;SDS011;10728;53.284;10.314;2022-11-20T05:18:51;9.60;;;5.80;;
21140;SDS011;10728;53.284;10.314;2022-11-20T05:21:17;9.00;;;5.73;;
21140;SDS011;10728;53.284;10.314;2022-11-20T05:23:43;11.17;;;5.27;;
21140;SDS011;10728;53.284;10.314;2022-11-20T05:26:13;9.63;;;5.37;;
21140;SDS011;10728;53.284;10.314;2022-11-20T05:28:40;10.70;;;5.97;;
21140;SDS011;10728;53.284;10.314;2022-11-20T05:31:06;7.37;;;5.00;;
21140;SDS011;10728;53.284;10.314;2022-11-20T05:33:33;9.53;;;5.87;;
21140;SDS011;10728;53.284;10.314;2022-11-20T05:35:59;10.20;;;5.90;;
21140;SDS011;10728;53.284;10.314;2022-11-20T05:38:25;10.13;;;6.50;;
21140;SDS011;10728;53.284;10.314;2022-11-20T05:40:51;10.20;;;6.53;;
21140;SDS011;10728;53.284;10.314;2022-11-20T05:43:16;10.50;;;6.43;;
21140;SDS011;10728;53.284;10.314;2022-11-20T05:45:41;8.63;;;6.80;;
21140;SDS011;10728;53.284;10.314;2022-11-20T05:48:07;9.93;;;6.07;;
21140;SDS011;10728;53.284;10.314;2022-11-20T05:50:32;10.33;;;6.90;;
21140;SDS011;10728;53.284;10.314;2022-11-20T05:52:58;13.47;;;7.23;;
21140;SDS011;10728;53.284;10.314;2022-11-20T05:55:24;8.50;;;6.60;;
21140;SDS011;10728;53.284;10.314;2022-11-20T05:57:51;11.30;;;6.70;;
21140;SDS011;10728;53.284;10.314;2022-11-20T06:00:18;13.57;;;7.30;;
21140;SDS011;10728;53.284;10.314;2022-11-20T06:02:43;12.30;;;6.80;;
21140;SDS011;10728;53.284;10.314;2022-11-20T06:05:08;10.83;;;7.57;;
21140;SDS011;10728;53.284;10.314;2022-11-20T06:07:34;12.13;;;7.13;;
21140;SDS011;10728;53.284;10.314;2022-11-20T06:09:59;11.97;;;6.83;;
21140;SDS011;10728;53.284;10.314;2022-11-20T06:12:24;14.60;;;8.23;;
21140;SDS011;10728;53.284;10.314;2022-11-20T06:14:50;12.27;;;7.50;;
21140;SDS011;10728;53.284;10.314;2022-11-20T06:17:15;11.73;;;7.37;;
21140;SDS011;10728;53.284;10.314;2022-11-20T06:19:41;12.33;;;7.07;;
21140;SDS011;10728;53.284;10.314;2022-11-20T06:22:06;11.77;;;7.20;;
21140;SDS011;10728;53.284;10.314;2022-11-20T06:24:31;11.63;;;7.57;;
21140;SDS011;10728;53.284;10.314;2022-11-20T06:26:57;12.63;;;7.80;;
21140;SDS011;10728;53.284;10.314;2022-11-20T06:29:22;14.63;;;8.37;;
21140;SDS011;10728;53.284;10.314;2022-11-20T06:31:48;12.40;;;7.80;;
21140;SDS011;10728;53.284;10.314;2022-11-20T06:34:13;11.10;;;7.73;;
21140;SDS011;10728;53.284;10.314;2022-11-20T06:36:38;14.67;;;8.77;;
21140;SDS011;10728;53.284;10.314;2022-11-20T06:39:04;13.47;;;7.90;;
21140;SDS011;10728;53.284;10.314;2022-11-20T06:41:29;16.30;;;9.00;;
21140;SDS011;10728;53.284;10.314;2022-11-20T06:43:55;12.70;;;8.97;;
21140;SDS011;10728;53.284;10.314;2022-11-20T06:46:20;13.87;;;9.07;;
21140;SDS011;10728;53.284;10.314;2022-11-20T06:48:47;13.30;;;9.17;;
21140;SDS011;10728;53.284;10.314;2022-11-20T06:51:13;17.57;;;11.97;;
21140;SDS011;10728;53.284;10.314;2022-11-20T06:53:38;16.13;;;10.47;;
21140;SDS011;10728;53.284;10.314;2022-11-20T06:56:04;17.63;;;10.07;;
21140;SDS011;10728;53.284;10.314;2022-11-20T06:58:31;21.17;;;12.37;;
21140;SDS011;10728;53.284;10.314;2022-11-20T07:00:57;23.57;;;14.93;;
21140;SDS011;10728;53.284;10.314;2022-11-20T07:03:24;15.70;;;10.13;;
21140;SDS011;10728;53.284;10.314;2022-11-20T07:05:49;14.80;;;8.83;;
21140;SDS011;10728;53.284;10.314;2022-11-20T07:08:14;23.37;;;15.03;;
21140;SDS011;10728;53.284;10.314;2022-11-20T07:10:40;12.97;;;9.77;;
21140;SDS011;10728;53.284;10.314;2022-11-20T07:13:05;16.10;;;9.33;;
21140;SDS011;10728;53.284;10.314;2022-11-20T07:15:32;13.23;;;8.97;;
21140;SDS011;10728;53.284;10.314;2022-11-20T07:18:00;13.80;;;8.57;;
21140;SDS011;10728;53.284;10.314;2022-11-20T07:20:26;14.13;;;9.43;;
21140;SDS011;10728;53.284;10.314;2022-11-20T07:22:55;17.37;;;9.17;;
21140;SDS011;10728;53.284;10.314;2022-11-20T07:25:22;13.10;;;8.80;;
21140;SDS011;10728;53.284;10.314;2022-11-20T07:27:48;13.17;;;7.57;;
21140;SDS011;10728;53.284;10.314;2022-11-20T07:30:14;14.10;;;8.90;;
21140;SDS011;10728;53.284;10.314;2022-11-20T07:32:40;13.57;;;9.17;;
21140;SDS011;10728;53.284;10.314;2022-11-20T07:35:05;16.60;;;9.47;;
21140;SDS011;10728;53.284;10.314;2022-11-20T07:37:33;14.83;;;9.17;;
21140;SDS011;10728;53.284;10.314;2022-11-20T07:39:59;11.77;;;8.30;;
21140;SDS011;10728;53.284;10.314;2022-11-20T07:42:24;15.83;;;8.73;;
21140;SDS011;10728;53.284;10.314;2022-11-20T07:44:50;14.10;;;8.97;;
21140;SDS011;10728;53.284;10.314;2022-11-20T07:47:15;14.37;;;8.73;;
21140;SDS011;10728;53.284;10.314;2022-11-20T07:49:40;17.13;;;10.33;;
21140;SDS011;10728;53.284;10.314;2022-11-20T07:52:06;13.40;;;9.43;;
21140;SDS011;10728;53.284;10.314;2022-11-20T07:54:31;13.37;;;9.10;;
21140;SDS011;10728;53.284;10.314;2022-11-20T07:56:57;15.70;;;9.03;;
21140;SDS011;10728;53.284;10.314;2022-11-20T07:59:22;13.30;;;8.10;;
21140;SDS011;10728;53.284;10.314;2022-11-20T08:01:47;12.97;;;8.23;;
21140;SDS011;10728;53.284;10.314;2022-11-20T08:04:13;15.00;;;9.00;;
21140;SDS011;10728;53.284;10.314;2022-11-20T08:06:41;14.57;;;9.10;;
21140;SDS011;10728;53.284;10.314;2022-11-20T08:09:06;13.40;;;8.50;;
21140;SDS011;10728;53.284;10.314;2022-11-20T08:11:32;13.33;;;8.67;;
21140;SDS011;10728;53.284;10.314;2022-11-20T08:14:16;12.87;;;8.33;;
21140;SDS011;10728;53.284;10.314;2022-11-20T08:16:44;11.17;;;8.23;;
21140;SDS011;10728;53.284;10.314;2022-11-20T08:19:12;13.60;;;8.73;;
21140;SDS011;10728;53.284;10.314;2022-11-20T08:21:38;12.30;;;8.07;;
21140;SDS011;10728;53.284;10.314;2022-11-20T08:24:04;14.43;;;8.80;;
21140;SDS011;10728;53.284;10.314;2022-11-20T08:26:30;13.43;;;8.20;;
21140;SDS011;10728;53.284;10.314;2022-11-20T08:28:56;15.63;;;9.20;;
21140;SDS011;10728;53.284;10.314;2022-11-20T08:31:22;15.00;;;8.53;;
21140;SDS011;10728;53.284;10.314;2022-11-20T08:33:48;12.03;;;8.70;;
21140;SDS011;10728;53.284;10.314;2022-11-20T08:36:14;12.50;;;9.07;;
21140;SDS011;10728;53.284;10.314;2022-11-20T08:38:39;12.60;;;8.43;;
21140;SDS011;10728;53.284;10.314;2022-11-20T08:41:05;11.77;;;7.90;;
21140;SDS011;10728;53.284;10.314;2022-11-20T08:43:51;12.33;;;8.27;;
21140;SDS011;10728;53.284;10.314;2022-11-20T08:46:48;12.40;;;8.40;;
21140;SDS011;10728;53.284;10.314;2022-11-20T08:49:13;15.30;;;9.17;;
21140;SDS011;10728;53.284;10.314;2022-11-20T08:51:51;13.33;;;8.27;;
21140;SDS011;10728;53.284;10.314;2022-11-20T08:54:56;15.50;;;8.83;;
21140;SDS011;10728;53.284;10.314;2022-11-20T08:57:49;13.93;;;8.93;;
21140;SDS011;10728;53.284;10.314;2022-11-20T09:04:39;17.77;;;8.57;;
21140;SDS011;10728;53.284;10.314;2022-11-20T09:11:37;11.90;;;7.77;;
21140;SDS011;10728;53.284;10.314;2022-11-20T09:14:03;14.30;;;8.17;;
